Time;durP1;ratioP1;P1;durP2;ratioP2;P2;SDS_P1;SDS_P2;PMS_P1;PMS_P2;Temp;Humidity;BMP_temperature;BMP_pressure;BME280_temperature;BME280_humidity;BME280_pressure;Samples;Min_cycle;Max_cycle;Signal;HPM_P1;HPM_P2
2022/10/25 00:00:21;;;;;;;5.38;0.98;;;;;;;;;;5043301;28;20327;-68
2022/10/25 00:02:47;;;;;;;4.38;1.40;;;;;;;;;;5049349;28;20059;-70
2022/10/25 00:05:14;;;;;;;7.40;1.20;;;;;;;;;;5059604;28;20064;-67
2022/10/25 00:07:41;;;;;;;3.47;1.25;;;;;;;;;;5049626;28;20056;-68
2022/10/25 00:10:08;;;;;;;3.45;1.13;;;;;;;;;;5043828;28;20067;-70
2022/10/25 00:12:40;;;;;;;5.20;1.40;;;;;;;;;;5049485;28;20063;-70
2022/10/25 00:15:09;;;;;;;4.60;1.20;;;;;;;;;;5043055;28;20055;-70
2022/10/25 00:17:35;;;;;;;4.30;1.52;;;;;;;;;;5049607;28;20060;-71
2022/10/25 00:20:02;;;;;;;2.45;1.17;;;;;;;;;;5040112;28;20049;-71
2022/10/25 00:22:28;;;;;;;3.92;1.67;;;;;;;;;;5065849;28;20052;-71
2022/10/25 00:24:55;;;;;;;5.82;1.58;;;;;;;;;;5027815;28;20064;-69
2022/10/25 00:27:21;;;;;;;3.70;0.82;;;;;;;;;;5029278;28;20111;-71
2022/10/25 00:29:48;;;;;;;3.08;1.27;;;;;;;;;;5023618;28;20080;-71
2022/10/25 00:32:17;;;;;;;4.63;1.30;;;;;;;;;;5045916;28;20111;-68
2022/10/25 00:34:44;;;;;;;4.35;1.10;;;;;;;;;;5045556;28;20053;-72
2022/10/25 00:37:10;;;;;;;6.40;1.75;;;;;;;;;;5039460;28;20049;-69
2022/10/25 00:39:37;;;;;;;3.17;1.45;;;;;;;;;;5046019;28;20049;-68
2022/10/25 00:42:03;;;;;;;4.45;1.27;;;;;;;;;;5056692;28;20056;-70
2022/10/25 00:44:49;;;;;;;5.03;1.40;;;;;;;;;;5048744;28;20071;-71
2022/10/25 00:47:22;;;;;;;5.10;1.85;;;;;;;;;;5026930;28;20053;-69
2022/10/25 00:49:50;;;;;;;5.50;1.63;;;;;;;;;;5030524;28;20053;-69
2022/10/25 00:52:18;;;;;;;4.25;1.58;;;;;;;;;;5035981;28;20061;-71
2022/10/25 00:54:46;;;;;;;3.70;1.67;;;;;;;;;;5032073;28;20079;-69
2022/10/25 00:57:13;;;;;;;4.53;1.52;;;;;;;;;;5038954;28;20103;-70
2022/10/25 00:59:40;;;;;;;5.93;1.67;;;;;;;;;;5045688;28;20063;-70
2022/10/25 01:02:06;;;;;;;9.55;1.52;;;;;;;;;;5039273;28;20056;-71
2022/10/25 01:04:34;;;;;;;5.35;1.15;;;;;;;;;;5045870;28;20085;-71
2022/10/25 01:07:02;;;;;;;3.25;1.60;;;;;;;;;;5037776;28;20060;-71
2022/10/25 01:09:30;;;;;;;3.28;1.23;;;;;;;;;;5031965;28;20057;-68
2022/10/25 01:11:57;;;;;;;6.82;2.35;;;;;;;;;;5025234;28;20112;-69
2022/10/25 01:14:25;;;;;;;5.72;1.85;;;;;;;;;;5044837;28;20135;-70
2022/10/25 01:16:55;;;;;;;5.30;2.00;;;;;;;;;;5023653;28;20056;-69
2022/10/25 01:19:34;;;;;;;4.07;1.90;;;;;;;;;;5025215;28;20172;-69
2022/10/25 01:22:00;;;;;;;;;;;;;;;;;;5027700;28;20049;-70
2022/10/25 01:24:45;;;;;;;3.58;1.38;;;;;;;;;;5043107;28;19924;-68
2022/10/25 01:27:20;;;;;;;8.00;2.03;;;;;;;;;;5037009;28;20053;-71
2022/10/25 01:30:03;;;;;;;5.25;1.90;;;;;;;;;;5045200;28;20049;-69
2022/10/25 01:32:33;;;;;;;7.95;2.08;;;;;;;;;;5036439;28;20050;-70
2022/10/25 01:35:05;;;;;;;5.13;1.75;;;;;;;;;;5024843;28;20107;-71
2022/10/25 01:37:36;;;;;;;6.43;1.80;;;;;;;;;;5021571;28;20111;-69
2022/10/25 01:40:05;;;;;;;7.78;1.77;;;;;;;;;;5045004;28;20057;-71
2022/10/25 01:42:35;;;;;;;5.43;1.70;;;;;;;;;;5038744;28;20071;-68
2022/10/25 01:45:06;;;;;;;5.55;1.63;;;;;;;;;;5045290;28;20045;-71
2022/10/25 01:47:37;;;;;;;7.47;1.90;;;;;;;;;;5045156;28;20088;-71
2022/10/25 01:50:06;;;;;;;5.57;1.40;;;;;;;;;;5021889;28;20049;-71
2022/10/25 01:52:33;;;;;;;3.58;1.42;;;;;;;;;;5025130;28;20067;-70
2022/10/25 01:54:59;;;;;;;3.88;1.27;;;;;;;;;;5036593;28;20068;-71
2022/10/25 01:57:35;;;;;;;7.30;1.65;;;;;;;;;;5044238;28;20110;-71
2022/10/25 02:00:05;;;;;;;4.78;1.40;;;;;;;;;;5040356;28;20052;-69
2022/10/25 02:02:38;;;;;;;4.88;1.30;;;;;;;;;;5022898;28;20057;-69
2022/10/25 02:05:10;;;;;;;2.67;1.08;;;;;;;;;;5034096;28;20065;-69
2022/10/25 02:07:37;;;;;;;7.43;1.80;;;;;;;;;;5044714;28;20106;-71
2022/10/25 02:10:07;;;;;;;5.38;1.48;;;;;;;;;;5025491;28;20080;-72
2022/10/25 02:12:38;;;;;;;10.38;1.95;;;;;;;;;;5024725;28;20065;-71
2022/10/25 02:15:08;;;;;;;4.85;1.52;;;;;;;;;;5030437;28;20064;-69
2022/10/25 02:17:38;;;;;;;4.25;1.42;;;;;;;;;;5040748;28;20073;-69
2022/10/25 02:20:05;;;;;;;4.38;1.30;;;;;;;;;;5030856;28;20048;-69
2022/10/25 02:22:32;;;;;;;4.45;1.48;;;;;;;;;;5030757;28;20115;-69
2022/10/25 02:25:00;;;;;;;5.60;1.58;;;;;;;;;;5023224;28;20042;-69
2022/10/25 02:27:28;;;;;;;3.28;1.33;;;;;;;;;;5028198;28;20049;-69
2022/10/25 02:29:56;;;;;;;9.18;2.15;;;;;;;;;;5022464;28;20132;-71
2022/10/25 02:32:22;;;;;;;6.50;1.88;;;;;;;;;;5028604;28;20056;-70
2022/10/25 02:34:50;;;;;;;4.68;1.35;;;;;;;;;;5025405;28;20052;-69
2022/10/25 02:37:17;;;;;;;9.00;1.42;;;;;;;;;;5047260;28;20122;-71
2022/10/25 02:39:44;;;;;;;3.58;1.40;;;;;;;;;;5043502;28;20060;-70
2022/10/25 02:42:10;;;;;;;5.75;1.63;;;;;;;;;;5064521;28;20073;-69
2022/10/25 02:44:37;;;;;;;3.10;1.20;;;;;;;;;;5048391;28;20084;-70
2022/10/25 02:47:03;;;;;;;8.63;1.70;;;;;;;;;;5041095;28;20075;-70
2022/10/25 02:49:30;;;;;;;3.95;1.48;;;;;;;;;;5048217;28;20056;-71
2022/10/25 02:51:58;;;;;;;8.30;1.73;;;;;;;;;;5041631;28;20057;-70
2022/10/25 02:54:25;;;;;;;6.68;1.60;;;;;;;;;;5047549;28;20048;-70
2022/10/25 02:56:51;;;;;;;5.85;1.77;;;;;;;;;;5029393;28;20061;-68
2022/10/25 02:59:20;;;;;;;5.55;1.58;;;;;;;;;;5027285;28;20072;-71
2022/10/25 03:01:46;;;;;;;3.85;1.58;;;;;;;;;;5032222;28;20064;-70
2022/10/25 03:04:13;;;;;;;6.40;1.38;;;;;;;;;;5047865;28;20064;-69
2022/10/25 03:06:40;;;;;;;5.85;1.50;;;;;;;;;;5041744;28;20061;-70
2022/10/25 03:09:07;;;;;;;10.73;2.28;;;;;;;;;;5041485;28;20099;-69
2022/10/25 03:11:34;;;;;;;11.27;2.10;;;;;;;;;;5022544;28;20057;-70
2022/10/25 03:14:00;;;;;;;10.00;2.13;;;;;;;;;;5027310;28;20061;-69
2022/10/25 03:16:27;;;;;;;4.75;1.98;;;;;;;;;;5030625;28;20045;-71
2022/10/25 03:18:56;;;;;;;3.78;1.40;;;;;;;;;;5020981;28;20045;-68
2022/10/25 03:21:22;;;;;;;6.35;1.77;;;;;;;;;;5023031;28;20060;-71
2022/10/25 03:23:49;;;;;;;15.00;2.28;;;;;;;;;;5047938;28;20053;-71
2022/10/25 03:26:17;;;;;;;3.38;1.60;;;;;;;;;;5047118;28;20132;-71
2022/10/25 03:28:44;;;;;;;4.85;1.90;;;;;;;;;;5023550;28;20049;-71
2022/10/25 03:31:11;;;;;;;6.95;1.95;;;;;;;;;;5026489;28;20068;-71
2022/10/25 03:33:38;;;;;;;9.50;2.08;;;;;;;;;;5037880;28;20049;-71
2022/10/25 03:36:05;;;;;;;7.45;1.55;;;;;;;;;;5047334;28;20060;-70
2022/10/25 03:38:32;;;;;;;8.52;2.20;;;;;;;;;;5041323;28;20048;-71
2022/10/25 03:40:58;;;;;;;7.30;1.70;;;;;;;;;;5047033;28;20048;-70
2022/10/25 03:43:27;;;;;;;6.85;1.70;;;;;;;;;;5040550;28;20056;-70
2022/10/25 03:45:53;;;;;;;8.90;1.65;;;;;;;;;;5046841;28;20064;-69
2022/10/25 03:48:20;;;;;;;7.60;2.00;;;;;;;;;;5032281;28;20053;-70
2022/10/25 03:50:46;;;;;;;5.45;1.77;;;;;;;;;;5027132;28;20069;-70
2022/10/25 03:53:13;;;;;;;5.57;1.83;;;;;;;;;;5021028;28;20053;-71
2022/10/25 03:55:40;;;;;;;4.57;1.60;;;;;;;;;;5029895;28;20130;-70
2022/10/25 03:58:06;;;;;;;6.90;2.10;;;;;;;;;;5018193;28;20119;-71
2022/10/25 04:00:34;;;;;;;9.18;1.80;;;;;;;;;;5006964;28;20049;-70
2022/10/25 04:03:01;;;;;;;12.02;2.05;;;;;;;;;;5004580;28;20068;-71
2022/10/25 04:05:28;;;;;;;6.85;2.10;;;;;;;;;;5010123;28;20050;-71
2022/10/25 04:07:54;;;;;;;11.70;2.30;;;;;;;;;;5010035;28;20080;-68
2022/10/25 04:10:21;;;;;;;5.75;1.90;;;;;;;;;;5004406;28;20053;-70
2022/10/25 04:12:48;;;;;;;5.85;1.67;;;;;;;;;;5010326;28;20053;-69
2022/10/25 04:15:15;;;;;;;5.63;1.58;;;;;;;;;;5017102;28;20052;-69
2022/10/25 04:17:43;;;;;;;8.40;1.95;;;;;;;;;;5009685;28;20053;-71
2022/10/25 04:20:10;;;;;;;11.48;1.70;;;;;;;;;;5004311;28;20061;-70
2022/10/25 04:22:36;;;;;;;11.85;2.00;;;;;;;;;;5027859;28;20053;-71
2022/10/25 04:25:03;;;;;;;8.57;1.60;;;;;;;;;;5013010;28;20050;-70
2022/10/25 04:27:30;;;;;;;4.25;1.92;;;;;;;;;;5009551;28;20151;-71
2022/10/25 04:29:56;;;;;;;9.57;2.15;;;;;;;;;;5000883;28;20058;-69
2022/10/25 04:32:23;;;;;;;10.95;2.00;;;;;;;;;;5006643;28;20120;-69
2022/10/25 04:34:51;;;;;;;6.18;2.17;;;;;;;;;;5004061;28;20092;-69
2022/10/25 04:37:17;;;;;;;6.07;1.47;;;;;;;;;;5009519;28;20057;-70
2022/10/25 04:39:44;;;;;;;8.45;1.90;;;;;;;;;;5007341;28;21017;-68
2022/10/25 04:42:10;;;;;;;15.48;1.95;;;;;;;;;;5028400;28;20056;-68
2022/10/25 04:44:37;;;;;;;5.00;1.65;;;;;;;;;;5022597;28;20083;-69
2022/10/25 04:47:05;;;;;;;11.05;2.47;;;;;;;;;;5009256;28;20068;-68
2022/10/25 04:49:32;;;;;;;;;;;;;;;;;;5029704;28;20055;-67
2022/10/25 04:52:00;;;;;;;6.78;1.88;;;;;;;;;;5004846;28;19932;-68
2022/10/25 04:54:26;;;;;;;13.90;3.47;;;;;;;;;;5013569;28;20061;-69
2022/10/25 04:56:53;;;;;;;7.95;3.15;;;;;;;;;;5022142;28;20151;-68
2022/10/25 04:59:19;;;;;;;3.80;1.65;;;;;;;;;;5024289;28;20044;-67
2022/10/25 05:01:46;;;;;;;6.95;1.95;;;;;;;;;;5020970;28;20091;-68
2022/10/25 05:04:12;;;;;;;6.25;2.47;;;;;;;;;;5026975;28;20053;-67
2022/10/25 05:06:39;;;;;;;8.27;2.05;;;;;;;;;;5019249;28;20053;-68
2022/10/25 05:09:07;;;;;;;8.15;2.53;;;;;;;;;;5025658;28;20044;-70
2022/10/25 05:11:34;;;;;;;8.27;2.00;;;;;;;;;;5021332;28;20084;-70
2022/10/25 05:14:00;;;;;;;7.32;2.17;;;;;;;;;;5026526;28;20052;-70
2022/10/25 05:16:27;;;;;;;6.20;1.58;;;;;;;;;;5019457;28;20056;-70
2022/10/25 05:18:54;;;;;;;5.68;2.08;;;;;;;;;;5024302;28;20126;-69
2022/10/25 05:21:22;;;;;;;8.88;2.13;;;;;;;;;;5018238;28;20045;-67
2022/10/25 05:23:48;;;;;;;8.30;1.80;;;;;;;;;;5035918;28;20054;-68
2022/10/25 05:26:21;;;;;;;6.22;1.80;;;;;;;;;;5018744;28;20052;-67
2022/10/25 05:28:49;;;;;;;7.65;2.10;;;;;;;;;;5024479;28;20049;-67
2022/10/25 05:31:16;;;;;;;4.03;1.63;;;;;;;;;;5026689;28;20131;-68
2022/10/25 05:33:44;;;;;;;3.15;1.45;;;;;;;;;;5020270;28;28992;-67
2022/10/25 05:36:11;;;;;;;7.20;1.73;;;;;;;;;;5023870;28;20053;-67
2022/10/25 05:38:38;;;;;;;6.10;2.40;;;;;;;;;;5019443;28;20068;-68
2022/10/25 05:41:05;;;;;;;11.23;3.20;;;;;;;;;;5026931;28;20076;-68
2022/10/25 05:43:33;;;;;;;7.70;2.58;;;;;;;;;;5022583;28;20055;-66
2022/10/25 05:46:05;;;;;;;5.80;1.90;;;;;;;;;;5046565;28;20096;-68
2022/10/25 05:48:32;;;;;;;9.30;2.00;;;;;;;;;;5022754;28;20048;-68
2022/10/25 05:51:07;;;;;;;7.07;2.20;;;;;;;;;;5029910;28;20132;-70
2022/10/25 05:53:34;;;;;;;6.50;1.73;;;;;;;;;;5015951;28;20107;-68
2022/10/25 05:56:01;;;;;;;6.60;1.80;;;;;;;;;;5016603;28;20049;-68
2022/10/25 05:58:27;;;;;;;7.25;1.83;;;;;;;;;;5018679;28;20057;-68
2022/10/25 06:00:58;;;;;;;5.70;1.83;;;;;;;;;;5035181;28;20052;-70
2022/10/25 06:03:25;;;;;;;5.38;1.70;;;;;;;;;;5032591;28;20060;-69
2022/10/25 06:05:51;;;;;;;5.80;1.77;;;;;;;;;;5014854;28;20053;-69
2022/10/25 06:08:18;;;;;;;7.45;1.83;;;;;;;;;;5012971;28;20102;-70
2022/10/25 06:10:44;;;;;;;5.20;1.80;;;;;;;;;;5034644;28;20049;-69
2022/10/25 06:13:11;;;;;;;6.70;1.90;;;;;;;;;;5028001;28;20056;-70
2022/10/25 06:15:38;;;;;;;5.03;1.77;;;;;;;;;;5034560;28;20048;-70
2022/10/25 06:18:06;;;;;;;4.53;1.65;;;;;;;;;;5034362;28;20064;-70
2022/10/25 06:20:33;;;;;;;5.18;1.67;;;;;;;;;;5031630;28;20074;-70
2022/10/25 06:22:59;;;;;;;5.78;1.75;;;;;;;;;;5054261;28;20052;-70
2022/10/25 06:25:26;;;;;;;2.63;1.48;;;;;;;;;;5030248;28;20059;-70
2022/10/25 06:27:53;;;;;;;5.47;1.70;;;;;;;;;;5034301;28;20048;-70
2022/10/25 06:30:20;;;;;;;7.28;1.92;;;;;;;;;;5024606;28;20077;-68
2022/10/25 06:32:49;;;;;;;5.00;1.67;;;;;;;;;;5030008;28;20057;-69
2022/10/25 06:35:17;;;;;;;5.55;1.95;;;;;;;;;;5019798;28;20133;-70
2022/10/25 06:37:44;;;;;;;10.60;2.67;;;;;;;;;;4998046;28;20123;-70
2022/10/25 06:40:10;;;;;;;4.80;1.77;;;;;;;;;;5018998;28;20103;-68
2022/10/25 06:42:37;;;;;;;4.97;1.63;;;;;;;;;;5050885;28;20061;-70
2022/10/25 06:45:06;;;;;;;6.18;1.95;;;;;;;;;;5052172;28;20048;-70
2022/10/25 06:47:33;;;;;;;4.78;1.63;;;;;;;;;;5054616;28;20055;-71
2022/10/25 06:49:59;;;;;;;5.78;1.58;;;;;;;;;;5042118;28;20056;-71
2022/10/25 06:52:27;;;;;;;7.20;1.90;;;;;;;;;;5034559;28;20057;-70
2022/10/25 06:54:54;;;;;;;5.63;1.77;;;;;;;;;;5025656;28;20189;-71
2022/10/25 06:57:20;;;;;;;4.90;2.00;;;;;;;;;;5014469;28;20057;-70
2022/10/25 06:59:47;;;;;;;6.60;2.05;;;;;;;;;;5011226;28;20348;-70
2022/10/25 07:02:13;;;;;;;7.05;2.10;;;;;;;;;;5033018;28;20051;-70
2022/10/25 07:04:40;;;;;;;4.30;1.85;;;;;;;;;;5031147;28;20054;-69
2022/10/25 07:07:07;;;;;;;7.13;1.90;;;;;;;;;;5021636;28;20064;-69
2022/10/25 07:09:34;;;;;;;4.95;1.95;;;;;;;;;;5027488;28;20057;-71
2022/10/25 07:12:01;;;;;;;3.97;1.73;;;;;;;;;;5025126;28;20060;-70
2022/10/25 07:14:28;;;;;;;5.38;2.15;;;;;;;;;;5030272;28;20052;-71
2022/10/25 07:16:54;;;;;;;5.93;2.08;;;;;;;;;;5021070;28;20045;-71
2022/10/25 07:19:22;;;;;;;5.15;2.20;;;;;;;;;;5010564;28;20053;-71
2022/10/25 07:21:49;;;;;;;7.03;2.30;;;;;;;;;;5005365;28;20153;-71
2022/10/25 07:24:15;;;;;;;6.40;1.90;;;;;;;;;;5011123;28;20296;-71
2022/10/25 07:26:43;;;;;;;9.40;2.38;;;;;;;;;;5009044;28;20065;-71
2022/10/25 07:29:10;;;;;;;6.30;2.20;;;;;;;;;;5029738;28;20055;-71
2022/10/25 07:31:37;;;;;;;5.22;1.80;;;;;;;;;;5024600;28;20065;-71
2022/10/25 07:34:05;;;;;;;3.90;1.70;;;;;;;;;;5030372;28;20052;-71
2022/10/25 07:36:32;;;;;;;6.10;1.75;;;;;;;;;;5015204;28;20057;-71
2022/10/25 07:38:59;;;;;;;10.73;2.38;;;;;;;;;;5028965;28;20068;-70
2022/10/25 07:41:26;;;;;;;5.47;2.10;;;;;;;;;;5024345;28;20115;-71
2022/10/25 07:43:55;;;;;;;5.90;2.35;;;;;;;;;;5028781;28;20053;-71
2022/10/25 07:46:22;;;;;;;8.07;1.92;;;;;;;;;;5028542;28;20057;-71
2022/10/25 07:48:49;;;;;;;9.07;2.35;;;;;;;;;;5023804;28;20055;-69
2022/10/25 07:51:16;;;;;;;11.43;2.85;;;;;;;;;;5030402;28;20118;-71
2022/10/25 07:53:43;;;;;;;5.72;2.10;;;;;;;;;;5009428;28;20160;-71
2022/10/25 07:56:14;;;;;;;4.93;2.03;;;;;;;;;;5010381;28;20061;-70
2022/10/25 07:58:40;;;;;;;4.40;1.85;;;;;;;;;;5018419;28;20044;-70
2022/10/25 08:01:09;;;;;;;3.85;1.67;;;;;;;;;;5029947;28;20073;-71
2022/10/25 08:03:35;;;;;;;9.27;2.78;;;;;;;;;;5022805;28;20056;-69
2022/10/25 08:06:03;;;;;;;10.30;3.47;;;;;;;;;;5030410;28;20053;-71
2022/10/25 08:08:30;;;;;;;11.77;3.38;;;;;;;;;;5023750;28;20056;-69
2022/10/25 08:10:58;;;;;;;9.85;3.22;;;;;;;;;;5029688;28;20056;-70
2022/10/25 08:13:24;;;;;;;5.75;2.78;;;;;;;;;;5029574;28;20135;-69
2022/10/25 08:15:52;;;;;;;5.88;2.33;;;;;;;;;;5038695;28;20100;-68
2022/10/25 08:18:20;;;;;;;11.40;3.05;;;;;;;;;;5020296;28;20056;-70
2022/10/25 08:20:46;;;;;;;9.18;4.20;;;;;;;;;;5033538;28;20052;-68
2022/10/25 08:23:13;;;;;;;10.90;3.45;;;;;;;;;;5041693;28;20059;-69
2022/10/25 08:25:39;;;;;;;5.90;2.20;;;;;;;;;;5027526;28;20092;-69
2022/10/25 08:28:06;;;;;;;8.35;3.40;;;;;;;;;;5011230;28;20063;-72
2022/10/25 08:30:32;;;;;;;9.30;3.38;;;;;;;;;;5023786;28;20041;-70
2022/10/25 08:32:59;;;;;;;10.20;3.60;;;;;;;;;;5030206;28;20083;-70
2022/10/25 08:35:28;;;;;;;10.90;3.47;;;;;;;;;;5020533;28;20062;-70
2022/10/25 08:37:55;;;;;;;6.63;2.92;;;;;;;;;;5026678;28;20063;-69
2022/10/25 08:40:23;;;;;;;9.63;4.32;;;;;;;;;;5023562;28;20063;-69
2022/10/25 08:42:57;;;;;;;4.80;2.38;;;;;;;;;;5029825;28;20061;-70
2022/10/25 08:45:27;;;;;;;5.97;2.58;;;;;;;;;;5023231;28;20064;-70
2022/10/25 08:47:55;;;;;;;8.77;3.83;;;;;;;;;;5027445;28;20049;-71
2022/10/25 08:50:24;;;;;;;10.30;4.30;;;;;;;;;;5010984;28;20045;-68
2022/10/25 08:52:52;;;;;;;;;;;;;;;;;;5026415;28;20053;-68
2022/10/25 08:55:23;;;;;;;12.93;3.30;;;;;;;;;;5025582;28;19928;-69
2022/10/25 08:57:51;;;;;;;11.15;4.82;;;;;;;;;;5006345;28;20057;-69
2022/10/25 09:00:20;;;;;;;6.60;2.92;;;;;;;;;;5024258;28;20232;-67
2022/10/25 09:02:46;;;;;;;;;;;;;;;;;;5009993;28;20049;-67
2022/10/25 09:05:14;;;;;;;9.02;3.42;;;;;;;;;;5036942;28;19924;-69
2022/10/25 09:07:48;;;;;;;10.45;3.67;;;;;;;;;;5009323;28;20049;-69
2022/10/25 09:10:21;;;;;;;9.65;4.40;;;;;;;;;;5006280;28;20045;-71
2022/10/25 09:12:55;;;;;;;12.50;3.85;;;;;;;;;;5028677;28;20105;-71
2022/10/25 09:15:28;;;;;;;9.80;4.60;;;;;;;;;;5019365;28;20119;-67
2022/10/25 09:17:55;;;;;;;9.40;5.07;;;;;;;;;;5008746;28;20068;-71
2022/10/25 09:20:24;;;;;;;11.07;4.35;;;;;;;;;;5003193;28;20061;-70
2022/10/25 09:22:54;;;;;;;8.68;4.00;;;;;;;;;;4994952;28;20061;-69
2022/10/25 09:25:22;;;;;;;9.43;3.47;;;;;;;;;;5028435;28;20057;-68
2022/10/25 09:27:55;;;;;;;8.65;3.72;;;;;;;;;;5001111;28;20068;-70
2022/10/25 09:30:21;;;;;;;11.35;4.75;;;;;;;;;;5008555;28;20049;-68
2022/10/25 09:32:49;;;;;;;11.23;4.53;;;;;;;;;;4994720;28;20086;-70
2022/10/25 09:35:17;;;;;;;13.73;5.55;;;;;;;;;;5023310;28;20082;-70
2022/10/25 09:37:45;;;;;;;12.50;5.50;;;;;;;;;;5003166;28;20092;-68
2022/10/25 09:40:14;;;;;;;10.52;4.43;;;;;;;;;;5008155;28;20046;-70
2022/10/25 09:42:42;;;;;;;11.55;4.55;;;;;;;;;;4999704;28;20053;-71
2022/10/25 09:45:17;;;;;;;9.57;4.20;;;;;;;;;;5004830;28;20116;-67
2022/10/25 09:47:47;;;;;;;8.23;3.88;;;;;;;;;;5002567;28;20117;-70
2022/10/25 09:50:18;;;;;;;11.73;3.92;;;;;;;;;;5008186;28;20058;-70
2022/10/25 09:52:47;;;;;;;10.75;3.97;;;;;;;;;;5012481;28;20060;-70
2022/10/25 09:55:28;;;;;;;7.95;3.72;;;;;;;;;;5061280;28;20095;-71
2022/10/25 09:57:54;;;;;;;9.50;3.88;;;;;;;;;;5011832;28;20053;-70
2022/10/25 10:00:22;;;;;;;8.23;3.47;;;;;;;;;;5008529;28;20054;-70
2022/10/25 10:02:49;;;;;;;12.70;3.97;;;;;;;;;;5003101;28;20057;-70
2022/10/25 10:05:16;;;;;;;10.98;3.92;;;;;;;;;;5008442;28;20111;-71
2022/10/25 10:07:44;;;;;;;11.53;4.33;;;;;;;;;;4999769;28;20073;-71
2022/10/25 10:10:13;;;;;;;9.20;3.95;;;;;;;;;;5005845;28;20133;-70
2022/10/25 10:12:42;;;;;;;10.25;3.85;;;;;;;;;;5004787;28;20147;-71
2022/10/25 10:15:15;;;;;;;9.85;3.55;;;;;;;;;;5026500;28;20080;-68
2022/10/25 10:17:43;;;;;;;9.82;3.88;;;;;;;;;;5003683;28;20127;-69
2022/10/25 10:20:12;;;;;;;8.73;3.67;;;;;;;;;;5044521;28;20052;-66
2022/10/25 10:22:45;;;;;;;7.50;3.78;;;;;;;;;;5026498;28;20057;-69
2022/10/25 10:25:16;;;;;;;8.23;3.72;;;;;;;;;;4988914;28;20109;-67
2022/10/25 10:27:42;;;;;;;11.10;3.75;;;;;;;;;;4980582;28;20064;-70
2022/10/25 10:30:18;;;;;;;8.18;3.67;;;;;;;;;;5000607;28;20073;-70
2022/10/25 10:32:47;;;;;;;11.23;4.22;;;;;;;;;;5008378;28;20049;-71
2022/10/25 10:35:24;;;;;;;10.35;4.45;;;;;;;;;;4999390;28;20050;-70
2022/10/25 10:37:51;;;;;;;21.40;7.47;;;;;;;;;;5004575;28;20050;-69
2022/10/25 10:40:24;;;;;;;12.55;5.80;;;;;;;;;;5019659;28;20307;-69
2022/10/25 10:42:50;;;;;;;12.82;5.30;;;;;;;;;;5029937;28;20055;-69
2022/10/25 10:45:18;;;;;;;14.57;5.03;;;;;;;;;;5023784;28;20126;-70
2022/10/25 10:47:45;;;;;;;10.43;5.40;;;;;;;;;;5008351;28;20042;-69
2022/10/25 10:50:25;;;;;;;9.80;4.95;;;;;;;;;;5006059;28;20049;-68
2022/10/25 10:52:56;;;;;;;11.68;5.00;;;;;;;;;;5012173;28;20088;-66
2022/10/25 10:55:25;;;;;;;13.52;5.13;;;;;;;;;;5005872;28;20057;-69
2022/10/25 10:57:52;;;;;;;10.20;4.82;;;;;;;;;;5011132;28;20140;-69
2022/10/25 11:00:23;;;;;;;8.40;4.40;;;;;;;;;;5014662;28;20165;-66
2022/10/25 11:02:50;;;;;;;11.85;4.75;;;;;;;;;;5032990;28;20066;-66
2022/10/25 11:05:30;;;;;;;9.32;4.55;;;;;;;;;;5014998;28;20050;-66
2022/10/25 11:07:57;;;;;;;11.00;4.78;;;;;;;;;;5007916;28;20049;-66
2022/10/25 11:10:30;;;;;;;12.10;4.88;;;;;;;;;;5012062;28;20045;-68
2022/10/25 11:13:16;;;;;;;9.55;4.45;;;;;;;;;;5030745;28;20073;-68
2022/10/25 11:15:57;;;;;;;13.77;4.57;;;;;;;;;;5016332;28;20107;-67
2022/10/25 11:18:27;;;;;;;8.50;3.63;;;;;;;;;;5010891;28;20067;-68
2022/10/25 11:20:59;;;;;;;11.10;4.85;;;;;;;;;;5029623;28;20102;-68
2022/10/25 11:23:27;;;;;;;15.70;4.57;;;;;;;;;;5031074;28;20053;-67
2022/10/25 11:25:58;;;;;;;10.18;4.85;;;;;;;;;;5017671;28;20045;-68
2022/10/25 11:28:32;;;;;;;9.52;4.20;;;;;;;;;;5027933;28;20056;-68
2022/10/25 11:31:03;;;;;;;9.20;4.05;;;;;;;;;;5013332;28;20050;-67
2022/10/25 11:33:37;;;;;;;11.10;4.25;;;;;;;;;;5003277;28;20066;-68
2022/10/25 11:36:21;;;;;;;9.80;4.30;;;;;;;;;;5005921;28;20060;-66
2022/10/25 11:38:56;;;;;;;13.35;4.63;;;;;;;;;;5010016;28;20061;-68
2022/10/25 11:41:27;;;;;;;10.45;4.07;;;;;;;;;;5000056;28;20103;-68
2022/10/25 11:44:02;;;;;;;8.85;3.60;;;;;;;;;;4991081;28;20046;-68
2022/10/25 11:46:33;;;;;;;11.45;3.95;;;;;;;;;;4986615;28;20050;-68
2022/10/25 11:49:06;;;;;;;8.27;4.07;;;;;;;;;;5006761;28;20049;-68
2022/10/25 11:51:37;;;;;;;10.80;4.45;;;;;;;;;;5004316;28;20049;-67
2022/10/25 11:54:13;;;;;;;9.02;4.00;;;;;;;;;;5009380;28;20053;-66
2022/10/25 11:56:46;;;;;;;8.13;3.42;;;;;;;;;;5021841;28;20059;-64
2022/10/25 11:59:16;;;;;;;9.88;3.88;;;;;;;;;;5026151;28;20046;-68
2022/10/25 12:01:49;;;;;;;10.45;3.75;;;;;;;;;;5023552;28;20316;-66
2022/10/25 12:04:23;;;;;;;13.50;3.85;;;;;;;;;;5029377;28;20057;-68
2022/10/25 12:06:52;;;;;;;7.60;3.63;;;;;;;;;;5024382;28;20146;-68
2022/10/25 12:09:25;;;;;;;6.90;3.22;;;;;;;;;;5029916;28;20049;-65
2022/10/25 12:11:55;;;;;;;8.60;3.30;;;;;;;;;;5029906;28;20055;-68
2022/10/25 12:14:25;;;;;;;6.90;3.10;;;;;;;;;;5024974;28;20057;-65
2022/10/25 12:16:52;;;;;;;8.63;3.65;;;;;;;;;;5026388;28;20057;-66
2022/10/25 12:19:23;;;;;;;13.32;3.55;;;;;;;;;;5006476;28;20061;-66
2022/10/25 12:21:53;;;;;;;6.57;3.05;;;;;;;;;;5008995;28;20057;-67
2022/10/25 12:24:22;;;;;;;7.70;3.53;;;;;;;;;;5003913;28;20053;-65
2022/10/25 12:26:50;;;;;;;12.13;3.67;;;;;;;;;;5009626;28;20045;-65
2022/10/25 12:29:19;;;;;;;7.10;3.10;;;;;;;;;;5004309;28;20055;-64
2022/10/25 12:31:48;;;;;;;7.50;3.05;;;;;;;;;;5009774;28;20049;-67
2022/10/25 12:34:17;;;;;;;10.23;3.35;;;;;;;;;;5016393;28;20065;-68
2022/10/25 12:36:45;;;;;;;13.50;3.58;;;;;;;;;;5029297;28;20056;-68
2022/10/25 12:39:14;;;;;;;8.95;3.70;;;;;;;;;;5023280;28;20072;-66
2022/10/25 12:41:40;;;;;;;;;;;;;;;;;;5030014;28;20061;-66
2022/10/25 12:44:23;;;;;;;9.68;3.67;;;;;;;;;;5015617;28;19932;-66
2022/10/25 12:47:00;;;;;;;10.13;3.05;;;;;;;;;;5009415;28;20050;-68
2022/10/25 12:49:37;;;;;;;12.13;3.55;;;;;;;;;;5020799;28;20059;-67
2022/10/25 12:52:17;;;;;;;8.85;3.40;;;;;;;;;;5047734;28;20053;-71
2022/10/25 12:54:50;;;;;;;12.45;2.90;;;;;;;;;;5035463;28;20061;-69
2022/10/25 12:57:22;;;;;;;9.52;3.15;;;;;;;;;;5045302;28;20049;-71
2022/10/25 13:00:03;;;;;;;10.05;3.08;;;;;;;;;;5038667;28;20056;-68
2022/10/25 13:02:58;;;;;;;10.90;3.00;;;;;;;;;;5045553;28;20049;-68
2022/10/25 13:05:31;;;;;;;5.35;2.83;;;;;;;;;;5037204;28;20041;-68
2022/10/25 13:07:58;;;;;;;6.85;2.33;;;;;;;;;;5045620;28;20076;-68
2022/10/25 13:10:25;;;;;;;7.78;2.72;;;;;;;;;;5038878;28;20049;-68
2022/10/25 13:12:59;;;;;;;8.85;2.45;;;;;;;;;;5045145;28;20094;-68
2022/10/25 13:15:29;;;;;;;9.32;2.63;;;;;;;;;;5039052;28;20056;-69
2022/10/25 13:18:04;;;;;;;6.25;2.55;;;;;;;;;;5029013;28;20134;-69
2022/10/25 13:20:47;;;;;;;10.43;2.55;;;;;;;;;;5020470;28;20053;-65
2022/10/25 13:23:29;;;;;;;8.35;2.17;;;;;;;;;;5047013;28;20052;-65
2022/10/25 13:26:04;;;;;;;7.72;2.08;;;;;;;;;;5051849;28;20051;-66
2022/10/25 13:28:31;;;;;;;6.75;2.22;;;;;;;;;;5065136;28;20056;-66
2022/10/25 13:31:12;;;;;;;4.95;2.20;;;;;;;;;;5026444;28;20183;-65
2022/10/25 13:33:40;;;;;;;8.65;2.28;;;;;;;;;;5044209;28;20360;-69
2022/10/25 13:36:08;;;;;;;11.73;2.80;;;;;;;;;;5034888;28;20083;-69
2022/10/25 13:38:36;;;;;;;6.72;2.33;;;;;;;;;;5028698;28;20053;-65
2022/10/25 13:41:06;;;;;;;9.88;2.60;;;;;;;;;;5025063;28;20203;-66
2022/10/25 13:43:33;;;;;;;9.02;2.38;;;;;;;;;;5046228;28;20123;-67
2022/10/25 13:46:00;;;;;;;5.45;2.25;;;;;;;;;;5041031;28;20053;-68
2022/10/25 13:48:28;;;;;;;8.30;2.10;;;;;;;;;;5028526;28;20052;-69
2022/10/25 13:50:58;;;;;;;7.65;2.55;;;;;;;;;;5023272;28;20052;-69
2022/10/25 13:53:25;;;;;;;6.00;2.30;;;;;;;;;;5043103;28;20041;-66
2022/10/25 13:56:04;;;;;;;4.50;2.20;;;;;;;;;;5044301;28;20057;-66
2022/10/25 13:58:39;;;;;;;10.25;2.67;;;;;;;;;;5042474;28;20060;-70
2022/10/25 14:01:21;;;;;;;5.15;2.30;;;;;;;;;;5044861;28;20044;-66
2022/10/25 14:03:49;;;;;;;6.97;2.20;;;;;;;;;;5043191;28;20131;-69
2022/10/25 14:06:25;;;;;;;6.28;2.17;;;;;;;;;;5044690;28;20049;-66
2022/10/25 14:09:00;;;;;;;12.63;2.45;;;;;;;;;;5007728;28;20054;-69
2022/10/25 14:11:34;;;;;;;5.38;2.30;;;;;;;;;;5008288;28;20073;-67
2022/10/25 14:14:04;;;;;;;9.73;2.28;;;;;;;;;;5044602;28;20072;-67
2022/10/25 14:16:32;;;;;;;10.27;2.30;;;;;;;;;;5031689;28;20056;-67
2022/10/25 14:19:03;;;;;;;7.70;2.33;;;;;;;;;;5039892;28;20060;-69
2022/10/25 14:21:32;;;;;;;7.97;2.67;;;;;;;;;;5042360;28;20053;-70
2022/10/25 14:24:00;;;;;;;9.40;2.50;;;;;;;;;;5038669;28;20056;-65
2022/10/25 14:26:27;;;;;;;7.53;2.42;;;;;;;;;;5047112;28;20063;-64
2022/10/25 14:29:11;;;;;;;9.82;2.38;;;;;;;;;;5042035;28;20053;-65
2022/10/25 14:31:38;;;;;;;8.10;3.17;;;;;;;;;;5047886;28;20092;-64
2022/10/25 14:34:05;;;;;;;9.43;3.63;;;;;;;;;;5029885;28;20045;-63
2022/10/25 14:36:35;;;;;;;9.98;3.67;;;;;;;;;;5030811;28;20075;-66
2022/10/25 14:39:03;;;;;;;10.02;3.50;;;;;;;;;;5036802;28;20147;-63
2022/10/25 14:41:31;;;;;;;12.27;3.50;;;;;;;;;;5051283;28;20049;-66
2022/10/25 14:43:58;;;;;;;10.83;3.37;;;;;;;;;;5030231;28;20099;-67
2022/10/25 14:46:26;;;;;;;9.48;3.10;;;;;;;;;;5026556;28;20309;-66
2022/10/25 14:48:53;;;;;;;7.78;3.10;;;;;;;;;;5022116;28;20068;-68
2022/10/25 14:51:21;;;;;;;7.15;2.60;;;;;;;;;;5027765;28;20049;-67